Denver, Colorado
Traffic Map
Current Weather Conditions
Denver, Colorado
Few Clouds
Few Clouds
21°
Feels Like: 21°
Wind Chill: 21° Ceiling: Unl
Heat Index: 21° Visibility: 10mi
Dew Point: 10° Wind: 5mph
Humidity: 48% Direction: 10° (N)
Pressure: 30.29in Gusts: 0mph
Raw Report DataKBKF 201758Z 01004KT 10SM FEW070 21/10 A3029 RMK AO2A SLP188 T02110096 10211 20122 50001
Traffic Incident Summary
Active as of:
Severity:
Category:
InformationThere was an issue retrieving the traffic information for this location. Please try a different location or try again shortly.
Advertisements
Track Severe Weather on mobile